sensor_id;sensor_type;location;lat;lon;timestamp;pressure;altitude;pressure_sealevel;temperature;humidity
53246;BME280;39569;51.090;-1.786;2023-01-27T00:00:26;102371.88;;;30.68;25.26
53246;BME280;39569;51.090;-1.786;2023-01-27T00:02:53;102379.25;;;30.58;25.13
53246;BME280;39569;51.090;-1.786;2023-01-27T00:05:20;102377.28;;;30.48;25.53
53246;BME280;39569;51.090;-1.786;2023-01-27T00:07:47;102374.19;;;30.40;25.75
53246;BME280;39569;51.090;-1.786;2023-01-27T00:10:15;102375.56;;;30.37;25.74
53246;BME280;39569;51.090;-1.786;2023-01-27T00:12:43;102387.63;;;30.31;25.65
53246;BME280;39569;51.090;-1.786;2023-01-27T00:15:29;102374.69;;;30.32;25.94
53246;BME280;39569;51.090;-1.786;2023-01-27T00:17:56;102379.22;;;30.16;25.77
53246;BME280;39569;51.090;-1.786;2023-01-27T00:20:24;102381.94;;;30.11;25.81
53246;BME280;39569;51.090;-1.786;2023-01-27T00:23:04;102382.72;;;30.07;26.11
53246;BME280;39569;51.090;-1.786;2023-01-27T00:25:49;102375.53;;;30.00;25.83
53246;BME280;39569;51.090;-1.786;2023-01-27T00:28:22;102377.44;;;30.00;26.11
53246;BME280;39569;51.090;-1.786;2023-01-27T00:30:51;102374.38;;;29.96;26.12
53246;BME280;39569;51.090;-1.786;2023-01-27T00:33:18;102377.84;;;29.82;26.29
53246;BME280;39569;51.090;-1.786;2023-01-27T00:35:55;102384.13;;;29.77;26.51
53246;BME280;39569;51.090;-1.786;2023-01-27T00:38:23;102387.94;;;29.71;26.36
53246;BME280;39569;51.090;-1.786;2023-01-27T00:40:49;102376.78;;;29.61;26.06
53246;BME280;39569;51.090;-1.786;2023-01-27T00:43:30;102358.28;;;29.57;26.33
53246;BME280;39569;51.090;-1.786;2023-01-27T00:45:58;102365.44;;;29.53;26.53
53246;BME280;39569;51.090;-1.786;2023-01-27T00:48:25;102368.06;;;29.43;26.75
53246;BME280;39569;51.090;-1.786;2023-01-27T00:50:52;102372.44;;;29.39;26.66
53246;BME280;39569;51.090;-1.786;2023-01-27T00:53:19;102363.28;;;29.33;26.64
53246;BME280;39569;51.090;-1.786;2023-01-27T00:55:45;102371.22;;;29.30;26.53
53246;BME280;39569;51.090;-1.786;2023-01-27T00:58:12;102365.94;;;29.23;26.73
53246;BME280;39569;51.090;-1.786;2023-01-27T01:00:39;102368.94;;;29.22;26.72
53246;BME280;39569;51.090;-1.786;2023-01-27T01:03:07;102365.94;;;29.23;26.68
53246;BME280;39569;51.090;-1.786;2023-01-27T01:05:34;102365.53;;;29.15;26.74
53246;BME280;39569;51.090;-1.786;2023-01-27T01:08:01;102360.22;;;29.08;26.67
53246;BME280;39569;51.090;-1.786;2023-01-27T01:10:28;102359.38;;;29.07;26.99
53246;BME280;39569;51.090;-1.786;2023-01-27T01:12:54;102345.78;;;28.74;27.18
53246;BME280;39569;51.090;-1.786;2023-01-27T01:15:21;102348.84;;;28.56;27.70
53246;BME280;39569;51.090;-1.786;2023-01-27T01:17:48;102358.56;;;28.47;27.56
53246;BME280;39569;51.090;-1.786;2023-01-27T01:20:16;102351.41;;;28.46;27.85
53246;BME280;39569;51.090;-1.786;2023-01-27T01:22:43;102345.56;;;28.43;27.83
53246;BME280;39569;51.090;-1.786;2023-01-27T01:25:09;102334.69;;;28.31;27.82
53246;BME280;39569;51.090;-1.786;2023-01-27T01:27:36;102342.28;;;28.24;27.87
53246;BME280;39569;51.090;-1.786;2023-01-27T01:30:03;102347.78;;;28.24;27.60
53246;BME280;39569;51.090;-1.786;2023-01-27T01:32:30;102351.63;;;28.23;27.80
53246;BME280;39569;51.090;-1.786;2023-01-27T01:34:57;102338.34;;;28.20;27.65
53246;BME280;39569;51.090;-1.786;2023-01-27T01:37:25;102331.53;;;28.23;27.99
53246;BME280;39569;51.090;-1.786;2023-01-27T01:39:52;102328.38;;;28.14;27.88
53246;BME280;39569;51.090;-1.786;2023-01-27T01:42:18;102331.03;;;28.09;27.87
53246;BME280;39569;51.090;-1.786;2023-01-27T01:44:45;102333.06;;;28.13;27.46
53246;BME280;39569;51.090;-1.786;2023-01-27T01:47:14;102337.63;;;28.25;27.87
53246;BME280;39569;51.090;-1.786;2023-01-27T01:49:43;102329.53;;;28.18;27.48
53246;BME280;39569;51.090;-1.786;2023-01-27T01:52:14;102317.97;;;28.16;27.71
53246;BME280;39569;51.090;-1.786;2023-01-27T01:54:45;102315.72;;;28.13;27.96
53246;BME280;39569;51.090;-1.786;2023-01-27T01:57:15;102304.66;;;28.08;27.87
53246;BME280;39569;51.090;-1.786;2023-01-27T01:59:47;102320.81;;;28.04;27.85
53246;BME280;39569;51.090;-1.786;2023-01-27T02:02:19;102323.00;;;28.02;27.64
53246;BME280;39569;51.090;-1.786;2023-01-27T02:04:51;102327.31;;;27.98;28.04
53246;BME280;39569;51.090;-1.786;2023-01-27T02:07:23;102335.81;;;27.97;27.99
53246;BME280;39569;51.090;-1.786;2023-01-27T02:09:53;102339.16;;;27.99;27.53
53246;BME280;39569;51.090;-1.786;2023-01-27T02:12:22;102329.22;;;28.14;27.59
53246;BME280;39569;51.090;-1.786;2023-01-27T02:14:48;102324.28;;;27.83;28.20
53246;BME280;39569;51.090;-1.786;2023-01-27T02:17:15;102338.03;;;27.83;27.89
53246;BME280;39569;51.090;-1.786;2023-01-27T02:19:50;102332.84;;;27.87;27.67
53246;BME280;39569;51.090;-1.786;2023-01-27T02:22:23;102332.41;;;28.06;27.63
53246;BME280;39569;51.090;-1.786;2023-01-27T02:24:59;102326.19;;;28.16;27.02
53246;BME280;39569;51.090;-1.786;2023-01-27T02:27:30;102324.81;;;28.13;27.14
53246;BME280;39569;51.090;-1.786;2023-01-27T02:29:56;102323.91;;;28.08;27.14
53246;BME280;39569;51.090;-1.786;2023-01-27T02:32:24;102325.81;;;28.07;27.34
53246;BME280;39569;51.090;-1.786;2023-01-27T02:34:52;102325.56;;;28.09;27.62
53246;BME280;39569;51.090;-1.786;2023-01-27T02:37:22;102329.28;;;28.03;27.78
53246;BME280;39569;51.090;-1.786;2023-01-27T02:39:50;102327.06;;;28.00;27.35
53246;BME280;39569;51.090;-1.786;2023-01-27T02:42:18;102325.41;;;27.99;27.43
53246;BME280;39569;51.090;-1.786;2023-01-27T02:44:46;102329.47;;;27.96;27.35
53246;BME280;39569;51.090;-1.786;2023-01-27T02:47:13;102331.53;;;27.89;27.28
53246;BME280;39569;51.090;-1.786;2023-01-27T02:49:40;102326.78;;;27.85;27.04
53246;BME280;39569;51.090;-1.786;2023-01-27T02:52:07;102324.53;;;27.82;27.50
53246;BME280;39569;51.090;-1.786;2023-01-27T02:54:33;102328.94;;;27.83;27.26
53246;BME280;39569;51.090;-1.786;2023-01-27T02:57:00;102328.28;;;27.76;27.24
53246;BME280;39569;51.090;-1.786;2023-01-27T02:59:27;102335.09;;;27.73;27.28
53246;BME280;39569;51.090;-1.786;2023-01-27T03:01:55;102329.13;;;27.76;27.22
53246;BME280;39569;51.090;-1.786;2023-01-27T03:04:22;102329.09;;;27.43;28.01
53246;BME280;39569;51.090;-1.786;2023-01-27T03:06:48;102328.41;;;27.36;27.67
53246;BME280;39569;51.090;-1.786;2023-01-27T03:09:15;102317.06;;;27.33;27.78
53246;BME280;39569;51.090;-1.786;2023-01-27T03:11:42;102320.91;;;27.32;28.08
53246;BME280;39569;51.090;-1.786;2023-01-27T03:14:26;102314.22;;;27.28;27.73
53246;BME280;39569;51.090;-1.786;2023-01-27T03:17:11;102319.09;;;27.26;27.86
53246;BME280;39569;51.090;-1.786;2023-01-27T03:19:56;102308.03;;;27.20;28.29
53246;BME280;39569;51.090;-1.786;2023-01-27T03:22:22;102319.75;;;27.16;27.76
53246;BME280;39569;51.090;-1.786;2023-01-27T03:24:50;102305.69;;;27.12;27.84
53246;BME280;39569;51.090;-1.786;2023-01-27T03:27:17;102315.59;;;27.13;27.71
53246;BME280;39569;51.090;-1.786;2023-01-27T03:29:44;102314.41;;;27.09;27.88
53246;BME280;39569;51.090;-1.786;2023-01-27T03:32:25;102315.59;;;27.13;27.80
53246;BME280;39569;51.090;-1.786;2023-01-27T03:34:53;102300.13;;;27.07;28.14
53246;BME280;39569;51.090;-1.786;2023-01-27T03:37:22;102298.94;;;27.03;27.88
53246;BME280;39569;51.090;-1.786;2023-01-27T03:40:08;102304.16;;;27.05;28.21
53246;BME280;39569;51.090;-1.786;2023-01-27T03:42:53;102294.78;;;27.01;27.96
53246;BME280;39569;51.090;-1.786;2023-01-27T03:45:37;102292.75;;;26.96;28.18
53246;BME280;39569;51.090;-1.786;2023-01-27T03:48:23;102291.44;;;26.99;28.17
53246;BME280;39569;51.090;-1.786;2023-01-27T03:50:50;102296.59;;;26.95;27.70
53246;BME280;39569;51.090;-1.786;2023-01-27T03:53:18;102294.56;;;26.91;28.25
53246;BME280;39569;51.090;-1.786;2023-01-27T03:55:45;102302.47;;;26.87;27.81
53246;BME280;39569;51.090;-1.786;2023-01-27T03:58:18;102298.41;;;26.90;28.20
53246;BME280;39569;51.090;-1.786;2023-01-27T04:00:47;102292.72;;;26.80;27.89
53246;BME280;39569;51.090;-1.786;2023-01-27T04:03:14;102292.22;;;26.83;28.31
53246;BME280;39569;51.090;-1.786;2023-01-27T04:06:03;102297.81;;;26.88;28.28
53246;BME280;39569;51.090;-1.786;2023-01-27T04:08:47;102300.69;;;26.81;28.06
53246;BME280;39569;51.090;-1.786;2023-01-27T04:11:14;102302.13;;;26.84;28.08
53246;BME280;39569;51.090;-1.786;2023-01-27T04:14:00;102299.97;;;26.86;27.87
53246;BME280;39569;51.090;-1.786;2023-01-27T04:16:27;102279.97;;;26.74;28.10
53246;BME280;39569;51.090;-1.786;2023-01-27T04:18:54;102281.31;;;26.71;28.20
53246;BME280;39569;51.090;-1.786;2023-01-27T04:21:24;102287.22;;;26.68;28.37
53246;BME280;39569;51.090;-1.786;2023-01-27T04:23:51;102289.97;;;26.68;27.87
53246;BME280;39569;51.090;-1.786;2023-01-27T04:26:18;102283.88;;;26.66;27.76
53246;BME280;39569;51.090;-1.786;2023-01-27T04:28:45;102283.28;;;26.64;28.35
53246;BME280;39569;51.090;-1.786;2023-01-27T04:31:12;102282.13;;;26.60;27.75
53246;BME280;39569;51.090;-1.786;2023-01-27T04:33:39;102281.63;;;26.63;27.78
53246;BME280;39569;51.090;-1.786;2023-01-27T04:36:06;102281.03;;;26.61;27.66
53246;BME280;39569;51.090;-1.786;2023-01-27T04:38:35;102272.56;;;26.63;27.77
53246;BME280;39569;51.090;-1.786;2023-01-27T04:41:01;102270.91;;;26.62;28.07
53246;BME280;39569;51.090;-1.786;2023-01-27T04:43:28;102267.59;;;26.60;27.94
53246;BME280;39569;51.090;-1.786;2023-01-27T04:45:55;102272.47;;;26.58;28.09
53246;BME280;39569;51.090;-1.786;2023-01-27T04:48:21;102262.00;;;26.55;28.05
53246;BME280;39569;51.090;-1.786;2023-01-27T04:50:48;102260.06;;;26.55;28.18
53246;BME280;39569;51.090;-1.786;2023-01-27T04:53:15;102265.72;;;26.49;27.75
53246;BME280;39569;51.090;-1.786;2023-01-27T04:55:47;102271.78;;;26.51;28.07
53246;BME280;39569;51.090;-1.786;2023-01-27T04:58:14;102269.41;;;26.43;27.83
53246;BME280;39569;51.090;-1.786;2023-01-27T05:00:42;102273.69;;;26.39;28.35
53246;BME280;39569;51.090;-1.786;2023-01-27T05:03:09;102271.81;;;26.39;27.83
53246;BME280;39569;51.090;-1.786;2023-01-27T05:05:37;102270.09;;;26.50;27.78
53246;BME280;39569;51.090;-1.786;2023-01-27T05:08:05;102274.28;;;26.41;28.03
53246;BME280;39569;51.090;-1.786;2023-01-27T05:10:32;102271.47;;;26.36;27.78
53246;BME280;39569;51.090;-1.786;2023-01-27T05:13:00;102280.63;;;26.41;27.70
53246;BME280;39569;51.090;-1.786;2023-01-27T05:15:27;102278.34;;;26.38;28.20
53246;BME280;39569;51.090;-1.786;2023-01-27T05:17:54;102282.06;;;26.32;27.91
53246;BME280;39569;51.090;-1.786;2023-01-27T05:20:21;102284.66;;;26.27;27.97
53246;BME280;39569;51.090;-1.786;2023-01-27T05:22:49;102289.81;;;26.23;27.90
53246;BME280;39569;51.090;-1.786;2023-01-27T05:25:36;102291.84;;;26.16;28.50
53246;BME280;39569;51.090;-1.786;2023-01-27T05:28:04;102283.97;;;26.20;28.41
53246;BME280;39569;51.090;-1.786;2023-01-27T05:30:31;102290.44;;;26.14;28.30
53246;BME280;39569;51.090;-1.786;2023-01-27T05:32:58;102290.44;;;26.14;28.49
53246;BME280;39569;51.090;-1.786;2023-01-27T05:35:25;102289.84;;;26.12;28.19
53246;BME280;39569;51.090;-1.786;2023-01-27T05:37:51;102288.75;;;26.13;28.38
53246;BME280;39569;51.090;-1.786;2023-01-27T05:40:18;102291.63;;;26.06;28.10
53246;BME280;39569;51.090;-1.786;2023-01-27T05:42:45;102296.84;;;26.08;28.14
53246;BME280;39569;51.090;-1.786;2023-01-27T05:45:13;102290.06;;;26.10;28.28
53246;BME280;39569;51.090;-1.786;2023-01-27T05:47:39;102285.72;;;26.03;28.07
53246;BME280;39569;51.090;-1.786;2023-01-27T05:50:07;102288.88;;;26.06;27.74
53246;BME280;39569;51.090;-1.786;2023-01-27T05:52:34;102279.44;;;26.02;27.70
53246;BME280;39569;51.090;-1.786;2023-01-27T05:55:01;102285.91;;;26.08;27.60
53246;BME280;39569;51.090;-1.786;2023-01-27T05:57:27;102279.09;;;25.99;28.01
53246;BME280;39569;51.090;-1.786;2023-01-27T05:59:54;102284.06;;;26.02;28.00
53246;BME280;39569;51.090;-1.786;2023-01-27T06:02:22;102290.78;;;26.06;27.81
53246;BME280;39569;51.090;-1.786;2023-01-27T06:04:49;102289.31;;;26.03;27.53
53246;BME280;39569;51.090;-1.786;2023-01-27T06:07:16;102283.72;;;25.98;27.90
53246;BME280;39569;51.090;-1.786;2023-01-27T06:09:42;102286.44;;;25.87;28.24
53246;BME280;39569;51.090;-1.786;2023-01-27T06:12:09;102282.28;;;25.96;27.98
53246;BME280;39569;51.090;-1.786;2023-01-27T06:14:36;102288.72;;;26.01;27.92
53246;BME280;39569;51.090;-1.786;2023-01-27T06:17:02;102288.75;;;26.13;27.71
53246;BME280;39569;51.090;-1.786;2023-01-27T06:19:30;102281.00;;;26.21;27.61
53246;BME280;39569;51.090;-1.786;2023-01-27T06:21:57;102274.81;;;26.26;27.30
53246;BME280;39569;51.090;-1.786;2023-01-27T06:24:24;102279.91;;;26.34;27.94
53246;BME280;39569;51.090;-1.786;2023-01-27T06:26:51;102274.28;;;26.41;27.66
53246;BME280;39569;51.090;-1.786;2023-01-27T06:29:17;102280.59;;;26.53;27.17
53246;BME280;39569;51.090;-1.786;2023-01-27T06:31:44;102281.53;;;26.58;27.24
53246;BME280;39569;51.090;-1.786;2023-01-27T06:34:11;102268.03;;;26.68;27.29
53246;BME280;39569;51.090;-1.786;2023-01-27T06:36:39;102266.59;;;26.77;26.93
53246;BME280;39569;51.090;-1.786;2023-01-27T06:39:06;102269.22;;;26.84;27.38
53246;BME280;39569;51.090;-1.786;2023-01-27T06:41:32;102266.66;;;26.94;27.34
53246;BME280;39569;51.090;-1.786;2023-01-27T06:43:59;102268.13;;;27.13;26.54
53246;BME280;39569;51.090;-1.786;2023-01-27T06:46:26;102270.28;;;27.28;26.96
53246;BME280;39569;51.090;-1.786;2023-01-27T06:48:52;102267.28;;;27.41;26.34
53246;BME280;39569;51.090;-1.786;2023-01-27T06:51:19;102276.28;;;27.53;26.60
53246;BME280;39569;51.090;-1.786;2023-01-27T06:53:47;102271.00;;;27.68;26.57
53246;BME280;39569;51.090;-1.786;2023-01-27T06:56:14;102266.34;;;27.68;26.58
53246;BME280;39569;51.090;-1.786;2023-01-27T06:58:41;102273.94;;;27.78;26.03
53246;BME280;39569;51.090;-1.786;2023-01-27T07:01:08;102275.75;;;27.89;26.17
53246;BME280;39569;51.090;-1.786;2023-01-27T07:03:35;102279.19;;;27.96;26.22
53246;BME280;39569;51.090;-1.786;2023-01-27T07:06:02;102273.28;;;28.04;26.04
53246;BME280;39569;51.090;-1.786;2023-01-27T07:08:28;102272.91;;;28.17;25.84
53246;BME280;39569;51.090;-1.786;2023-01-27T07:10:57;102271.78;;;28.35;25.82
53246;BME280;39569;51.090;-1.786;2023-01-27T07:13:23;102283.34;;;28.37;25.66
53246;BME280;39569;51.090;-1.786;2023-01-27T07:15:53;102282.97;;;28.50;25.57
53246;BME280;39569;51.090;-1.786;2023-01-27T07:18:20;102278.06;;;28.52;25.60
53246;BME280;39569;51.090;-1.786;2023-01-27T07:20:47;102278.13;;;28.57;25.52
53246;BME280;39569;51.090;-1.786;2023-01-27T07:23:14;102279.38;;;28.49;25.80
53246;BME280;39569;51.090;-1.786;2023-01-27T07:25:41;102285.56;;;28.56;25.61
53246;BME280;39569;51.090;-1.786;2023-01-27T07:28:10;102284.84;;;28.66;25.37
53246;BME280;39569;51.090;-1.786;2023-01-27T07:30:37;102289.84;;;28.69;25.51
53246;BME280;39569;51.090;-1.786;2023-01-27T07:33:04;102286.13;;;28.80;25.24
53246;BME280;39569;51.090;-1.786;2023-01-27T07:35:31;102287.81;;;29.07;25.39
53246;BME280;39569;51.090;-1.786;2023-01-27T07:37:58;102276.22;;;29.27;25.03
53246;BME280;39569;51.090;-1.786;2023-01-27T07:40:25;102277.88;;;29.28;24.95
53246;BME280;39569;51.090;-1.786;2023-01-27T07:42:51;102281.81;;;29.37;24.88
53246;BME280;39569;51.090;-1.786;2023-01-27T07:45:20;102278.91;;;29.49;24.75
53246;BME280;39569;51.090;-1.786;2023-01-27T07:47:46;102278.06;;;29.48;24.57
53246;BME280;39569;51.090;-1.786;2023-01-27T07:50:13;102282.28;;;29.61;24.71
53246;BME280;39569;51.090;-1.786;2023-01-27T07:52:40;102277.09;;;29.64;24.66
53246;BME280;39569;51.090;-1.786;2023-01-27T07:55:07;102281.22;;;29.62;24.84
53246;BME280;39569;51.090;-1.786;2023-01-27T07:57:34;102277.72;;;29.71;24.68
53246;BME280;39569;51.090;-1.786;2023-01-27T08:00:02;102278.09;;;29.80;24.76
53246;BME280;39569;51.090;-1.786;2023-01-27T08:02:31;102282.00;;;29.89;24.69
53246;BME280;39569;51.090;-1.786;2023-01-27T08:04:58;102280.94;;;29.95;24.64
53246;BME280;39569;51.090;-1.786;2023-01-27T08:07:24;102280.44;;;30.03;24.42
53246;BME280;39569;51.090;-1.786;2023-01-27T08:09:51;102283.53;;;30.12;24.38
53246;BME280;39569;51.090;-1.786;2023-01-27T08:12:19;102292.66;;;30.17;24.46
53246;BME280;39569;51.090;-1.786;2023-01-27T08:14:45;102303.44;;;30.24;24.39
53246;BME280;39569;51.090;-1.786;2023-01-27T08:17:12;102298.25;;;30.27;24.49
53246;BME280;39569;51.090;-1.786;2023-01-27T08:19:40;102300.25;;;30.37;24.35
53246;BME280;39569;51.090;-1.786;2023-01-27T08:22:07;102311.81;;;30.34;24.54
53246;BME280;39569;51.090;-1.786;2023-01-27T08:24:34;102304.38;;;30.34;24.72
53246;BME280;39569;51.090;-1.786;2023-01-27T08:27:01;102310.75;;;30.40;24.36
53246;BME280;39569;51.090;-1.786;2023-01-27T08:29:27;102313.25;;;30.46;24.18
53246;BME280;39569;51.090;-1.786;2023-01-27T08:31:57;102320.13;;;30.44;24.50
53246;BME280;39569;51.090;-1.786;2023-01-27T08:34:24;102322.66;;;30.45;24.32
53246;BME280;39569;51.090;-1.786;2023-01-27T08:36:52;102324.06;;;30.53;23.92
53246;BME280;39569;51.090;-1.786;2023-01-27T08:39:19;102324.94;;;30.58;24.16
53246;BME280;39569;51.090;-1.786;2023-01-27T08:41:46;102327.91;;;30.52;24.44
53246;BME280;39569;51.090;-1.786;2023-01-27T08:44:13;102334.22;;;30.47;24.25
53246;BME280;39569;51.090;-1.786;2023-01-27T08:46:39;102325.41;;;30.45;24.48
53246;BME280;39569;51.090;-1.786;2023-01-27T08:49:06;102338.00;;;30.36;24.71
53246;BME280;39569;51.090;-1.786;2023-01-27T08:51:33;102338.00;;;30.31;24.73
53246;BME280;39569;51.090;-1.786;2023-01-27T08:54:01;102341.75;;;30.20;24.60
53246;BME280;39569;51.090;-1.786;2023-01-27T08:56:28;102332.03;;;30.08;24.60
53246;BME280;39569;51.090;-1.786;2023-01-27T08:58:55;102343.03;;;30.02;24.80
53246;BME280;39569;51.090;-1.786;2023-01-27T09:01:22;102334.69;;;29.97;24.90
53246;BME280;39569;51.090;-1.786;2023-01-27T09:03:49;102337.41;;;29.92;24.92
53246;BME280;39569;51.090;-1.786;2023-01-27T09:06:16;102338.16;;;29.83;25.12
53246;BME280;39569;51.090;-1.786;2023-01-27T09:08:43;102350.88;;;29.84;24.70
53246;BME280;39569;51.090;-1.786;2023-01-27T09:11:32;102349.72;;;29.80;24.87
53246;BME280;39569;51.090;-1.786;2023-01-27T09:13:58;102360.38;;;29.71;25.42
53246;BME280;39569;51.090;-1.786;2023-01-27T09:16:25;102358.09;;;29.63;25.27
53246;BME280;39569;51.090;-1.786;2023-01-27T09:18:52;102359.66;;;29.54;25.40
53246;BME280;39569;51.090;-1.786;2023-01-27T09:21:19;102368.94;;;29.48;25.13
53246;BME280;39569;51.090;-1.786;2023-01-27T09:23:47;102359.28;;;29.46;25.29
53246;BME280;39569;51.090;-1.786;2023-01-27T09:26:14;102363.59;;;29.37;25.38
53246;BME280;39569;51.090;-1.786;2023-01-27T09:28:42;102357.78;;;29.33;25.56
53246;BME280;39569;51.090;-1.786;2023-01-27T09:31:09;102373.34;;;29.23;25.68
53246;BME280;39569;51.090;-1.786;2023-01-27T09:33:36;102366.66;;;29.14;25.72
53246;BME280;39569;51.090;-1.786;2023-01-27T09:36:05;102363.78;;;29.08;25.69
53246;BME280;39569;51.090;-1.786;2023-01-27T09:38:37;102366.81;;;29.07;25.88
53246;BME280;39569;51.090;-1.786;2023-01-27T09:41:34;102370.91;;;29.04;25.92
53246;BME280;39569;51.090;-1.786;2023-01-27T09:44:11;102365.28;;;28.94;25.98
53246;BME280;39569;51.090;-1.786;2023-01-27T09:49:51;102366.75;;;28.80;26.07
53246;BME280;39569;51.090;-1.786;2023-01-27T09:52:35;102362.00;;;28.76;25.85
53246;BME280;39569;51.090;-1.786;2023-01-27T09:55:14;102358.88;;;28.67;25.88
53246;BME280;39569;51.090;-1.786;2023-01-27T09:57:50;102362.31;;;28.58;26.14
53246;BME280;39569;51.090;-1.786;2023-01-27T10:00:28;102370.50;;;28.53;26.33
53246;BME280;39569;51.090;-1.786;2023-01-27T10:03:10;102359.91;;;28.61;26.43
53246;BME280;39569;51.090;-1.786;2023-01-27T10:05:54;102352.41;;;28.57;25.84
53246;BME280;39569;51.090;-1.786;2023-01-27T10:08:37;102357.31;;;28.55;26.35
53246;BME280;39569;51.090;-1.786;2023-01-27T10:11:17;102362.13;;;28.48;26.37
53246;BME280;39569;51.090;-1.786;2023-01-27T10:13:55;102371.75;;;28.45;26.12
53246;BME280;39569;51.090;-1.786;2023-01-27T10:16:44;102365.06;;;28.41;26.18
53246;BME280;39569;51.090;-1.786;2023-01-27T10:19:26;102373.59;;;28.40;26.19
53246;BME280;39569;51.090;-1.786;2023-01-27T10:22:05;102363.25;;;28.30;26.62
53246;BME280;39569;51.090;-1.786;2023-01-27T10:24:44;102370.03;;;28.23;26.43
53246;BME280;39569;51.090;-1.786;2023-01-27T10:27:16;102371.78;;;28.12;26.51
53246;BME280;39569;51.090;-1.786;2023-01-27T10:29:45;102376.91;;;28.08;26.53
53246;BME280;39569;51.090;-1.786;2023-01-27T10:32:20;102373.09;;;28.09;26.37
53246;BME280;39569;51.090;-1.786;2023-01-27T10:34:58;102379.00;;;28.01;26.78
53246;BME280;39569;51.090;-1.786;2023-01-27T10:37:35;102368.19;;;27.95;26.49
53246;BME280;39569;51.090;-1.786;2023-01-27T10:40:10;102369.16;;;27.89;26.63
53246;BME280;39569;51.090;-1.786;2023-01-27T10:42:43;102362.00;;;27.88;26.87
53246;BME280;39569;51.090;-1.786;2023-01-27T10:45:21;102360.34;;;27.87;27.04
53246;BME280;39569;51.090;-1.786;2023-01-27T10:50:43;102367.91;;;27.80;26.97
53246;BME280;39569;51.090;-1.786;2023-01-27T10:53:13;102366.00;;;27.80;26.82
53246;BME280;39569;51.090;-1.786;2023-01-27T10:55:47;102349.75;;;27.79;26.92
53246;BME280;39569;51.090;-1.786;2023-01-27T10:58:19;102359.91;;;27.78;26.91
53246;BME280;39569;51.090;-1.786;2023-01-27T11:00:52;102368.47;;;27.65;26.75
53246;BME280;39569;51.090;-1.786;2023-01-27T11:03:25;102358.81;;;27.63;27.06
53246;BME280;39569;51.090;-1.786;2023-01-27T11:05:57;102352.00;;;27.65;27.21
53246;BME280;39569;51.090;-1.786;2023-01-27T11:08:28;102349.97;;;27.61;27.03
53246;BME280;39569;51.090;-1.786;2023-01-27T11:10:58;102352.91;;;27.54;27.38
53246;BME280;39569;51.090;-1.786;2023-01-27T11:13:43;102352.56;;;27.51;26.80
53246;BME280;39569;51.090;-1.786;2023-01-27T11:16:14;102358.06;;;27.51;27.33
53246;BME280;39569;51.090;-1.786;2023-01-27T11:18:43;102345.56;;;27.43;27.26
53246;BME280;39569;51.090;-1.786;2023-01-27T11:21:15;102361.78;;;27.45;27.27
53246;BME280;39569;51.090;-1.786;2023-01-27T11:23:45;102353.22;;;27.41;27.41
53246;BME280;39569;51.090;-1.786;2023-01-27T11:26:22;102359.28;;;27.43;27.43
53246;BME280;39569;51.090;-1.786;2023-01-27T11:28:52;102352.03;;;27.37;26.85
53246;BME280;39569;51.090;-1.786;2023-01-27T11:31:25;102355.88;;;27.36;27.22
53246;BME280;39569;51.090;-1.786;2023-01-27T11:34:04;102347.25;;;27.33;27.38
53246;BME280;39569;51.090;-1.786;2023-01-27T11:36:32;102342.25;;;27.30;27.38
53246;BME280;39569;51.090;-1.786;2023-01-27T11:39:00;102342.75;;;27.27;26.95
53246;BME280;39569;51.090;-1.786;2023-01-27T11:41:31;102341.31;;;27.36;27.39
53246;BME280;39569;51.090;-1.786;2023-01-27T11:44:02;102335.38;;;27.44;26.73
53246;BME280;39569;51.090;-1.786;2023-01-27T11:46:30;102333.22;;;27.46;26.81
53246;BME280;39569;51.090;-1.786;2023-01-27T11:48:58;102332.91;;;27.59;26.69
53246;BME280;39569;51.090;-1.786;2023-01-27T11:51:29;102317.69;;;27.68;26.68
53246;BME280;39569;51.090;-1.786;2023-01-27T11:54:03;102311.28;;;27.79;26.80
53246;BME280;39569;51.090;-1.786;2023-01-27T11:56:32;102313.97;;;27.90;26.56
53246;BME280;39569;51.090;-1.786;2023-01-27T11:59:03;102310.41;;;28.06;26.50
53246;BME280;39569;51.090;-1.786;2023-01-27T12:01:38;102308.66;;;28.17;26.01
53246;BME280;39569;51.090;-1.786;2023-01-27T12:04:15;102304.69;;;28.30;26.07
53246;BME280;39569;51.090;-1.786;2023-01-27T12:06:47;102304.59;;;28.41;25.98
53246;BME280;39569;51.090;-1.786;2023-01-27T12:09:32;102300.22;;;28.62;25.64
53246;BME280;39569;51.090;-1.786;2023-01-27T12:12:10;102303.94;;;28.72;25.86
53246;BME280;39569;51.090;-1.786;2023-01-27T12:14:37;102302.91;;;28.78;25.65
53246;BME280;39569;51.090;-1.786;2023-01-27T12:17:05;102306.88;;;28.87;25.73
53246;BME280;39569;51.090;-1.786;2023-01-27T12:19:39;102304.28;;;29.02;25.53
53246;BME280;39569;51.090;-1.786;2023-01-27T12:22:09;102302.50;;;29.13;25.70
53246;BME280;39569;51.090;-1.786;2023-01-27T12:24:40;102304.50;;;29.18;25.45
53246;BME280;39569;51.090;-1.786;2023-01-27T12:27:19;102310.34;;;29.26;25.40
53246;BME280;39569;51.090;-1.786;2023-01-27T12:29:47;102305.00;;;29.41;25.25
53246;BME280;39569;51.090;-1.786;2023-01-27T12:32:19;102290.38;;;29.41;25.23
53246;BME280;39569;51.090;-1.786;2023-01-27T12:34:50;102287.47;;;29.52;25.17
53246;BME280;39569;51.090;-1.786;2023-01-27T12:37:24;102290.56;;;29.61;25.10
53246;BME280;39569;51.090;-1.786;2023-01-27T12:39:55;102288.69;;;29.66;25.03
53246;BME280;39569;51.090;-1.786;2023-01-27T12:42:38;102283.13;;;29.88;24.77
53246;BME280;39569;51.090;-1.786;2023-01-27T12:45:21;102277.63;;;29.93;24.89
53246;BME280;39569;51.090;-1.786;2023-01-27T12:47:58;102273.19;;;29.92;24.74
53246;BME280;39569;51.090;-1.786;2023-01-27T12:50:29;102273.44;;;29.85;24.82
53246;BME280;39569;51.090;-1.786;2023-01-27T12:53:05;102279.25;;;29.89;24.95
53246;BME280;39569;51.090;-1.786;2023-01-27T12:55:33;102269.84;;;29.85;24.87
53246;BME280;39569;51.090;-1.786;2023-01-27T12:58:01;102272.00;;;29.78;25.02
53246;BME280;39569;51.090;-1.786;2023-01-27T13:00:29;102268.09;;;29.74;25.06